createdAt,value
2023-05-25T00:01:01.323Z,13.80
2023-05-25T00:03:31.081Z,13.90
2023-05-25T00:06:01.281Z,13.90
2023-05-25T00:08:29.635Z,14.00
2023-05-25T00:10:58.955Z,14.00
2023-05-25T00:13:26.860Z,13.80
2023-05-25T00:15:54.783Z,13.90
2023-05-25T00:18:22.788Z,13.30
2023-05-25T00:20:54.006Z,13.00
2023-05-25T00:23:21.910Z,13.40
2023-05-25T00:25:49.715Z,13.70
2023-05-25T00:28:18.845Z,13.80
2023-05-25T00:30:46.715Z,13.80
2023-05-25T00:33:14.990Z,13.80
2023-05-25T00:35:43.752Z,13.50
2023-05-25T00:38:16.908Z,13.60
2023-05-25T00:40:44.810Z,12.70
2023-05-25T00:43:13.868Z,13.20
2023-05-25T00:45:43.258Z,13.20
2023-05-25T00:48:11.773Z,13.30
2023-05-25T00:50:42.189Z,13.60
2023-05-25T00:53:12.660Z,13.70
2023-05-25T00:55:45.367Z,13.70
2023-05-25T00:58:15.053Z,13.70
2023-05-25T01:00:46.623Z,13.60
2023-05-25T01:03:21.710Z,13.60
2023-05-25T01:05:52.320Z,13.70
2023-05-25T01:08:23.535Z,13.50
2023-05-25T01:10:53.448Z,13.50
2023-05-25T01:13:21.970Z,13.60
2023-05-25T01:15:52.199Z,13.60
2023-05-25T01:18:20.033Z,13.60
2023-05-25T01:21:12.820Z,13.60
2023-05-25T01:23:44.442Z,13.50
2023-05-25T01:26:16.473Z,13.30
2023-05-25T01:28:51.278Z,13.40
2023-05-25T01:31:22.272Z,13.40
2023-05-25T01:33:51.614Z,13.50
2023-05-25T01:36:21.356Z,13.40
2023-05-25T01:38:50.410Z,13.50
2023-05-25T01:41:18.215Z,13.50
2023-05-25T01:43:46.576Z,13.50
2023-05-25T01:46:23.506Z,13.40
2023-05-25T01:49:01.362Z,13.40
2023-05-25T01:51:37.768Z,13.40
2023-05-25T01:54:13.163Z,13.40
2023-05-25T01:56:42.693Z,13.40
2023-05-25T01:59:12.038Z,13.40
2023-05-25T02:01:42.404Z,13.30
2023-05-25T02:04:10.547Z,13.30
2023-05-25T02:06:40.150Z,13.40
2023-05-25T02:09:07.979Z,13.30
2023-05-25T02:11:36.120Z,13.30
2023-05-25T02:14:03.915Z,13.20
2023-05-25T02:16:31.762Z,12.90
2023-05-25T02:18:59.664Z,12.10
2023-05-25T02:21:28.164Z,12.50
2023-05-25T02:23:58.432Z,12.90
2023-05-25T02:26:26.470Z,13.00
2023-05-25T02:28:54.287Z,13.10
2023-05-25T02:31:22.317Z,13.10
2023-05-25T02:33:50.098Z,13.20
2023-05-25T02:36:17.928Z,13.10
2023-05-25T02:38:47.356Z,12.70
2023-05-25T02:41:16.796Z,12.90
2023-05-25T02:43:44.731Z,13.00
2023-05-25T02:46:12.663Z,13.10
2023-05-25T02:48:42.694Z,13.10
2023-05-25T02:51:10.831Z,13.10
2023-05-25T02:53:38.691Z,12.90
2023-05-25T02:56:06.857Z,12.80
2023-05-25T02:58:36.052Z,12.40
2023-05-25T03:01:05.478Z,12.20
2023-05-25T03:03:33.455Z,12.10
2023-05-25T03:06:01.312Z,12.10
2023-05-25T03:08:29.090Z,11.90
2023-05-25T03:10:57.161Z,12.50
2023-05-25T03:13:24.940Z,12.20
2023-05-25T03:15:54.129Z,12.30
2023-05-25T03:18:22.091Z,12.70
2023-05-25T03:20:49.905Z,12.80
2023-05-25T03:23:17.708Z,12.90
2023-05-25T03:25:45.879Z,12.90
2023-05-25T03:28:13.933Z,12.90
2023-05-25T03:30:42.143Z,12.80
2023-05-25T03:33:13.741Z,12.90
2023-05-25T03:35:41.734Z,12.90
2023-05-25T03:38:09.601Z,12.70
2023-05-25T03:40:37.613Z,12.60
2023-05-25T03:43:05.433Z,12.70
2023-05-25T03:45:33.256Z,12.80
2023-05-25T03:48:01.252Z,12.90
2023-05-25T03:50:30.488Z,12.80
2023-05-25T03:52:58.273Z,12.40
2023-05-25T03:55:26.081Z,12.00
2023-05-25T03:57:53.916Z,11.90
2023-05-25T04:00:21.875Z,12.00
2023-05-25T04:02:49.729Z,11.90
2023-05-25T04:05:17.666Z,11.80
2023-05-25T04:07:47.033Z,11.70
2023-05-25T04:10:14.920Z,11.70
2023-05-25T04:12:42.775Z,11.80
2023-05-25T04:15:14.061Z,11.70
2023-05-25T04:17:42.048Z,11.80
2023-05-25T04:20:10.920Z,11.80
2023-05-25T04:22:39.507Z,11.80
2023-05-25T04:25:10.332Z,12.10
2023-05-25T04:27:38.341Z,12.00
2023-05-25T04:30:07.381Z,12.20
2023-05-25T04:32:37.277Z,11.90
2023-05-25T04:35:06.017Z,11.90
2023-05-25T04:37:33.867Z,11.90
2023-05-25T04:40:01.678Z,12.10
2023-05-25T04:42:31.352Z,12.00
2023-05-25T04:44:59.510Z,12.00
2023-05-25T04:47:27.399Z,11.90
2023-05-25T04:49:55.250Z,11.90
2023-05-25T04:52:23.153Z,11.90
2023-05-25T04:54:51.625Z,11.90
2023-05-25T04:57:19.437Z,12.10
2023-05-25T04:59:48.570Z,12.30
2023-05-25T05:02:16.850Z,12.20
2023-05-25T05:04:44.670Z,12.00
2023-05-25T05:07:12.596Z,12.00
2023-05-25T05:09:40.371Z,11.90
2023-05-25T05:12:10.680Z,12.10
2023-05-25T05:14:39.798Z,12.20
2023-05-25T05:17:08.986Z,12.00
2023-05-25T05:19:37.040Z,11.90
2023-05-25T05:22:04.955Z,11.90
2023-05-25T05:24:32.817Z,12.10
2023-05-25T05:27:03.297Z,12.10
2023-05-25T05:29:34.156Z,12.10
2023-05-25T05:32:01.974Z,12.20
2023-05-25T05:34:31.502Z,12.40
2023-05-25T05:37:00.075Z,12.50
2023-05-25T05:39:28.552Z,12.10
2023-05-25T05:41:56.759Z,12.10
2023-05-25T05:44:28.686Z,12.10
2023-05-25T05:47:00.338Z,12.20
2023-05-25T05:49:28.799Z,12.10
2023-05-25T05:51:58.164Z,12.30
2023-05-25T05:54:27.667Z,12.10
2023-05-25T05:56:55.908Z,12.20
2023-05-25T05:59:23.943Z,12.20
2023-05-25T06:01:51.766Z,12.10
2023-05-25T06:04:20.450Z,12.30
2023-05-25T06:06:48.279Z,12.30
2023-05-25T06:09:17.497Z,12.50
2023-05-25T06:11:45.313Z,12.70
2023-05-25T06:14:13.165Z,12.40
2023-05-25T06:16:41.117Z,12.50
2023-05-25T06:19:08.924Z,12.40
2023-05-25T06:21:37.482Z,12.40
2023-05-25T06:24:06.060Z,12.40
2023-05-25T06:26:35.340Z,12.60
2023-05-25T06:29:03.225Z,12.70
2023-05-25T06:31:31.306Z,12.60
2023-05-25T06:33:59.218Z,12.70
2023-05-25T06:36:27.452Z,13.00
2023-05-25T06:38:55.593Z,12.80
2023-05-25T06:41:23.423Z,12.80
2023-05-25T06:43:52.582Z,12.90
2023-05-25T06:46:21.519Z,12.90
2023-05-25T06:48:49.423Z,12.60
2023-05-25T06:51:17.197Z,12.70
2023-05-25T06:53:45.175Z,12.70
2023-05-25T06:56:13.102Z,12.70
2023-05-25T06:58:40.959Z,12.60
2023-05-25T07:01:10.123Z,12.60
2023-05-25T07:03:38.645Z,12.70
2023-05-25T07:06:07.292Z,12.70
2023-05-25T07:08:36.306Z,12.70
2023-05-25T07:11:04.366Z,12.70
2023-05-25T07:13:32.310Z,12.70
2023-05-25T07:16:00.423Z,12.70
2023-05-25T07:18:29.696Z,12.80
2023-05-25T07:20:58.100Z,12.90
2023-05-25T07:23:25.961Z,12.90
2023-05-25T07:25:54.062Z,12.70
2023-05-25T07:28:22.000Z,12.90
2023-05-25T07:30:49.808Z,12.90
2023-05-25T07:33:17.648Z,13.20
2023-05-25T07:35:47.969Z,13.30
2023-05-25T07:38:15.882Z,13.30
2023-05-25T07:40:44.464Z,13.20
2023-05-25T07:43:12.292Z,13.30
2023-05-25T07:45:40.660Z,13.40
2023-05-25T07:48:09.485Z,13.20
2023-05-25T07:50:37.356Z,13.40
2023-05-25T07:53:06.487Z,13.30
2023-05-25T07:55:34.285Z,13.40
2023-05-25T07:58:02.156Z,13.60
2023-05-25T08:00:30.209Z,13.40
2023-05-25T08:02:58.156Z,13.60
2023-05-25T08:05:26.150Z,13.50
2023-05-25T08:07:54.539Z,13.30
2023-05-25T08:10:23.805Z,13.30
2023-05-25T08:12:52.682Z,13.40
2023-05-25T08:15:20.665Z,13.50
2023-05-25T08:17:50.664Z,13.70
2023-05-25T08:20:18.891Z,13.70
2023-05-25T08:22:46.756Z,13.50
2023-05-25T08:25:14.685Z,13.80
2023-05-25T08:27:43.837Z,13.80
2023-05-25T08:30:12.380Z,13.70
2023-05-25T08:32:40.352Z,13.80
2023-05-25T08:35:08.771Z,13.80
2023-05-25T08:37:36.581Z,13.80
2023-05-25T08:40:07.746Z,13.80
2023-05-25T08:42:35.621Z,13.90
2023-05-25T08:45:05.367Z,13.80
2023-05-25T08:47:35.573Z,13.80
2023-05-25T08:50:04.961Z,13.70
2023-05-25T08:52:34.323Z,13.60
2023-05-25T08:55:06.540Z,13.90
2023-05-25T08:57:44.572Z,13.80
2023-05-25T09:00:16.440Z,13.70
2023-05-25T09:02:51.864Z,13.90
2023-05-25T09:05:20.497Z,13.80
2023-05-25T09:07:48.917Z,14.00
2023-05-25T09:10:17.170Z,14.00
2023-05-25T09:12:45.035Z,14.10
2023-05-25T09:15:14.438Z,14.00
2023-05-25T09:17:42.340Z,14.00
2023-05-25T09:20:13.684Z,14.10
2023-05-25T09:22:42.314Z,14.00
2023-05-25T09:25:11.882Z,14.00
2023-05-25T09:27:39.758Z,14.30
2023-05-25T09:30:08.689Z,14.50
2023-05-25T09:32:38.867Z,14.30
2023-05-25T09:35:10.497Z,14.40
2023-05-25T09:37:39.023Z,14.30
2023-05-25T09:40:10.705Z,14.50
2023-05-25T09:42:38.856Z,14.60
2023-05-25T09:45:07.815Z,14.30
2023-05-25T09:47:38.260Z,14.40
2023-05-25T09:50:07.618Z,14.60
2023-05-25T09:52:36.534Z,14.70
2023-05-25T09:55:04.762Z,14.80
2023-05-25T09:57:32.602Z,14.80
2023-05-25T10:00:00.839Z,15.00
2023-05-25T10:02:29.637Z,15.00
2023-05-25T10:04:58.882Z,15.10
2023-05-25T10:07:27.772Z,14.70
2023-05-25T10:09:56.696Z,14.90
2023-05-25T10:12:25.828Z,14.90
2023-05-25T10:14:55.764Z,15.10
2023-05-25T10:17:25.228Z,15.20
2023-05-25T10:19:58.959Z,15.20
2023-05-25T10:22:32.933Z,15.10
2023-05-25T10:25:07.781Z,15.40
2023-05-25T10:27:39.841Z,15.40
2023-05-25T10:30:09.984Z,15.30
2023-05-25T10:32:38.717Z,15.50
2023-05-25T10:35:09.693Z,15.70
2023-05-25T10:37:39.233Z,15.90
2023-05-25T10:40:09.493Z,15.40
2023-05-25T10:42:38.567Z,15.70
2023-05-25T10:45:08.594Z,16.00
2023-05-25T10:47:41.595Z,15.80
2023-05-25T10:50:20.160Z,15.90
2023-05-25T10:52:58.010Z,15.90
2023-05-25T10:55:31.104Z,15.70
2023-05-25T10:58:13.157Z,15.80
2023-05-25T11:00:42.347Z,15.80
2023-05-25T11:03:12.159Z,15.80
2023-05-25T11:05:41.569Z,16.00
2023-05-25T11:08:12.136Z,16.10
2023-05-25T11:10:54.184Z,16.00
2023-05-25T11:13:37.843Z,16.10
2023-05-25T11:16:15.161Z,16.30
2023-05-25T11:18:43.763Z,16.40
2023-05-25T11:21:18.655Z,16.70
2023-05-25T11:23:57.192Z,16.50
2023-05-25T11:26:26.401Z,16.60
2023-05-25T11:28:54.729Z,16.40
2023-05-25T11:31:29.912Z,16.30
2023-05-25T11:33:58.512Z,16.50
2023-05-25T11:36:31.406Z,16.70
2023-05-25T11:39:08.559Z,16.80
2023-05-25T11:41:47.855Z,16.80
2023-05-25T11:44:15.997Z,16.70
2023-05-25T11:46:48.491Z,16.50
2023-05-25T11:49:16.490Z,16.60
2023-05-25T11:51:45.712Z,17.10
2023-05-25T11:54:22.861Z,17.70
2023-05-25T11:56:50.992Z,18.00
2023-05-25T11:59:19.240Z,17.80
2023-05-25T12:01:57.226Z,17.50
2023-05-25T12:04:25.374Z,17.60
2023-05-25T12:07:01.980Z,17.90
2023-05-25T12:09:29.962Z,17.80
2023-05-25T12:11:58.069Z,17.90
2023-05-25T12:14:26.407Z,18.00
2023-05-25T12:16:54.612Z,17.90
2023-05-25T12:19:23.168Z,18.20
2023-05-25T12:21:51.580Z,18.00
2023-05-25T12:24:21.086Z,18.00
2023-05-25T12:26:49.717Z,18.00
2023-05-25T12:29:18.138Z,17.90
2023-05-25T12:31:46.189Z,17.80
2023-05-25T12:34:15.985Z,18.10
2023-05-25T12:36:46.191Z,18.50
2023-05-25T12:39:15.944Z,18.30
2023-05-25T12:41:46.947Z,18.30
2023-05-25T12:44:23.055Z,18.10
2023-05-25T12:46:52.045Z,18.20
2023-05-25T12:49:25.077Z,18.80
2023-05-25T12:51:52.936Z,18.40
2023-05-25T12:54:40.781Z,18.70
2023-05-25T12:57:11.199Z,18.70
2023-05-25T12:59:39.697Z,18.70
2023-05-25T13:02:08.178Z,19.10
2023-05-25T13:04:36.829Z,18.50
2023-05-25T13:07:05.212Z,18.80
2023-05-25T13:09:33.711Z,19.00
2023-05-25T13:12:02.937Z,19.10
2023-05-25T13:14:32.146Z,19.00
2023-05-25T13:17:00.344Z,18.90
2023-05-25T13:19:28.152Z,19.20
2023-05-25T13:21:56.691Z,19.10
2023-05-25T13:24:24.642Z,18.90
2023-05-25T13:26:52.464Z,19.30
2023-05-25T13:29:20.418Z,19.20
2023-05-25T13:31:49.600Z,19.00
2023-05-25T13:34:17.589Z,19.60
2023-05-25T13:36:45.454Z,19.40
2023-05-25T13:39:14.491Z,19.80
2023-05-25T13:41:42.721Z,19.60
2023-05-25T13:44:13.245Z,19.60
2023-05-25T13:46:42.537Z,19.80
2023-05-25T13:49:13.688Z,19.40
2023-05-25T13:51:41.514Z,19.60
2023-05-25T13:54:09.322Z,19.20
2023-05-25T13:56:37.168Z,19.40
2023-05-25T13:59:05.024Z,19.50
2023-05-25T14:01:34.290Z,19.80
2023-05-25T14:04:02.253Z,19.80
2023-05-25T14:06:31.775Z,20.00
2023-05-25T14:08:59.562Z,19.90
2023-05-25T14:11:28.810Z,20.00
2023-05-25T14:13:57.107Z,19.70
2023-05-25T14:16:24.995Z,19.80
2023-05-25T14:18:53.037Z,20.00
2023-05-25T14:21:21.064Z,20.10
2023-05-25T14:23:50.287Z,20.10
2023-05-25T14:26:18.095Z,20.10
2023-05-25T14:28:45.913Z,20.10
2023-05-25T14:31:13.723Z,20.10
2023-05-25T14:33:43.088Z,20.30
2023-05-25T14:36:11.362Z,20.20
2023-05-25T14:38:39.166Z,20.00
2023-05-25T14:41:08.363Z,20.10
2023-05-25T14:43:36.323Z,20.20
2023-05-25T14:46:04.117Z,20.30
2023-05-25T14:48:31.988Z,20.10
2023-05-25T14:51:00.477Z,20.20
2023-05-25T14:53:28.337Z,20.40
2023-05-25T14:55:56.163Z,20.20
2023-05-25T14:58:25.307Z,19.90
2023-05-25T15:00:53.109Z,19.70
2023-05-25T15:03:21.067Z,20.00
2023-05-25T15:05:49.052Z,20.10
2023-05-25T15:08:16.929Z,20.30
2023-05-25T15:10:44.962Z,20.30
2023-05-25T15:13:13.556Z,20.20
2023-05-25T15:15:43.023Z,20.30
2023-05-25T15:18:11.148Z,20.30
2023-05-25T15:20:39.211Z,20.60
2023-05-25T15:23:07.080Z,20.50
2023-05-25T15:25:47.806Z,20.60
2023-05-25T15:28:15.992Z,20.60
2023-05-25T15:30:45.348Z,20.60
2023-05-25T15:33:14.499Z,20.30
2023-05-25T15:35:42.592Z,20.30
2023-05-25T15:38:10.785Z,20.10
2023-05-25T15:40:38.790Z,20.00
2023-05-25T15:43:06.678Z,20.20
2023-05-25T15:45:34.496Z,20.50
2023-05-25T15:48:03.991Z,20.50
2023-05-25T15:50:31.929Z,20.50
2023-05-25T15:52:59.752Z,20.40
2023-05-25T15:55:27.796Z,20.30
2023-05-25T15:57:55.580Z,20.30
2023-05-25T16:00:23.433Z,20.40
2023-05-25T16:02:51.452Z,20.50
2023-05-25T16:05:20.938Z,20.60
2023-05-25T16:07:48.801Z,20.70
2023-05-25T16:10:16.719Z,20.70
2023-05-25T16:12:44.551Z,20.60
2023-05-25T16:15:12.414Z,20.20
2023-05-25T16:17:40.307Z,20.00
2023-05-25T16:20:09.935Z,19.90
2023-05-25T16:22:39.086Z,19.80
2023-05-25T16:25:07.983Z,19.80
2023-05-25T16:27:35.863Z,19.90
2023-05-25T16:30:03.867Z,19.70
2023-05-25T16:32:32.693Z,19.70
2023-05-25T16:35:01.242Z,20.00
2023-05-25T16:37:29.043Z,20.20
2023-05-25T16:39:58.194Z,20.40
2023-05-25T16:42:26.272Z,20.30
2023-05-25T16:44:54.077Z,20.40
2023-05-25T16:47:22.556Z,20.50
2023-05-25T16:49:50.493Z,20.50
2023-05-25T16:52:18.367Z,20.60
2023-05-25T16:54:46.187Z,20.60
2023-05-25T16:57:15.429Z,20.50
2023-05-25T16:59:43.275Z,20.50
2023-05-25T17:02:11.105Z,20.30
2023-05-25T17:04:38.929Z,20.30
2023-05-25T17:07:07.475Z,20.20
2023-05-25T17:09:35.320Z,20.10
2023-05-25T17:12:03.519Z,20.00
2023-05-25T17:14:32.829Z,20.00
2023-05-25T17:17:00.690Z,20.00
2023-05-25T17:19:28.529Z,20.00
2023-05-25T17:21:56.367Z,19.90
2023-05-25T17:24:24.255Z,19.80
2023-05-25T17:26:52.065Z,19.80
2023-05-25T17:29:19.993Z,19.70
2023-05-25T17:31:49.337Z,19.70
2023-05-25T17:34:17.315Z,19.80
2023-05-25T17:36:45.151Z,19.80
2023-05-25T17:39:13.001Z,19.70
2023-05-25T17:41:41.463Z,19.70
2023-05-25T17:44:09.278Z,19.70
2023-05-25T17:46:37.106Z,19.70
2023-05-25T17:49:06.333Z,19.50
2023-05-25T17:51:34.119Z,19.50
2023-05-25T17:54:02.018Z,19.50
2023-05-25T17:56:29.806Z,19.60
2023-05-25T17:58:57.659Z,19.40
2023-05-25T18:01:25.558Z,19.30
2023-05-25T18:03:54.159Z,19.30
2023-05-25T18:06:23.442Z,19.20
2023-05-25T18:08:51.600Z,19.20
2023-05-25T18:11:19.400Z,19.10
2023-05-25T18:13:47.274Z,19.00
2023-05-25T18:16:15.150Z,19.00
2023-05-25T18:18:42.977Z,19.00
2023-05-25T18:21:10.862Z,19.00
2023-05-25T18:23:39.977Z,19.10
2023-05-25T18:26:07.815Z,19.00
2023-05-25T18:28:35.621Z,19.10
2023-05-25T18:31:03.467Z,19.00
2023-05-25T18:33:31.294Z,18.90
2023-05-25T18:35:59.098Z,18.90
2023-05-25T18:38:26.866Z,18.90
2023-05-25T18:40:56.035Z,18.90
2023-05-25T18:43:24.288Z,19.00
2023-05-25T18:45:52.111Z,18.90
2023-05-25T18:48:20.220Z,18.70
2023-05-25T18:50:48.040Z,18.70
2023-05-25T18:53:16.009Z,18.80
2023-05-25T18:55:44.086Z,18.90
2023-05-25T18:58:13.305Z,18.80
2023-05-25T19:00:41.078Z,18.80
2023-05-25T19:03:09.071Z,18.70
2023-05-25T19:05:36.991Z,18.80
2023-05-25T19:08:04.791Z,18.90
2023-05-25T19:10:32.671Z,18.90
2023-05-25T19:13:00.890Z,18.90
2023-05-25T19:15:31.237Z,18.80
2023-05-25T19:17:59.136Z,18.80
2023-05-25T19:20:27.991Z,18.80
2023-05-25T19:22:55.853Z,18.80
2023-05-25T19:25:23.624Z,18.80
2023-05-25T19:27:51.656Z,18.80
2023-05-25T19:30:19.640Z,18.70
2023-05-25T19:32:48.908Z,18.70
2023-05-25T19:35:16.948Z,18.70
2023-05-25T19:37:44.752Z,18.70
2023-05-25T19:40:13.289Z,18.70
2023-05-25T19:42:41.177Z,18.60
2023-05-25T19:45:09.511Z,18.60
2023-05-25T19:47:37.364Z,18.60
2023-05-25T19:50:08.345Z,18.60
2023-05-25T19:52:36.198Z,18.50
2023-05-25T19:55:04.066Z,18.50
2023-05-25T19:57:31.915Z,18.50
2023-05-25T19:59:59.856Z,18.40
2023-05-25T20:02:28.368Z,18.30
2023-05-25T20:04:56.218Z,18.30
2023-05-25T20:07:28.224Z,18.40
2023-05-25T20:09:55.994Z,18.40
2023-05-25T20:12:23.796Z,18.40
2023-05-25T20:14:51.608Z,18.40
2023-05-25T20:17:19.430Z,18.40
2023-05-25T20:19:47.222Z,18.40
2023-05-25T20:22:15.091Z,18.40
2023-05-25T20:24:44.241Z,18.40
2023-05-25T20:27:12.098Z,18.30
2023-05-25T20:29:39.926Z,18.30
2023-05-25T20:32:07.821Z,18.30
2023-05-25T20:34:35.913Z,18.30
2023-05-25T20:37:03.770Z,18.30
2023-05-25T20:39:31.646Z,18.10
2023-05-25T20:42:01.642Z,18.20
2023-05-25T20:44:31.758Z,18.20
2023-05-25T20:46:59.638Z,18.20
2023-05-25T20:49:27.455Z,18.20
2023-05-25T20:51:55.430Z,17.80
2023-05-25T20:54:23.243Z,17.30
2023-05-25T20:56:51.734Z,17.70
2023-05-25T20:59:21.812Z,18.10
2023-05-25T21:01:49.624Z,17.80
2023-05-25T21:04:17.670Z,18.00
2023-05-25T21:06:46.152Z,18.00
2023-05-25T21:09:13.943Z,18.00
2023-05-25T21:11:41.783Z,17.90
2023-05-25T21:14:09.678Z,17.80
2023-05-25T21:16:38.945Z,17.30
2023-05-25T21:19:06.835Z,17.60
2023-05-25T21:21:34.942Z,17.80
2023-05-25T21:24:03.027Z,17.20
2023-05-25T21:26:31.752Z,17.10
2023-05-25T21:28:59.686Z,17.50
2023-05-25T21:31:27.539Z,17.60
2023-05-25T21:33:57.570Z,17.60
2023-05-25T21:36:26.086Z,17.70
2023-05-25T21:38:53.928Z,17.40
2023-05-25T21:41:21.739Z,17.60
2023-05-25T21:43:49.559Z,17.10
2023-05-25T21:46:17.590Z,17.30
2023-05-25T21:48:45.393Z,17.40
2023-05-25T21:51:14.573Z,17.50
2023-05-25T21:53:42.424Z,17.40
2023-05-25T21:56:10.395Z,17.40
2023-05-25T21:58:38.206Z,17.40
2023-05-25T22:01:06.259Z,17.40
2023-05-25T22:03:34.217Z,17.40
2023-05-25T22:06:02.130Z,17.40
2023-05-25T22:08:31.247Z,17.40
2023-05-25T22:10:59.112Z,17.30
2023-05-25T22:13:26.945Z,17.30
2023-05-25T22:15:54.767Z,17.20
2023-05-25T22:18:22.537Z,17.20
2023-05-25T22:20:51.040Z,17.30
2023-05-25T22:23:19.008Z,17.20
2023-05-25T22:25:48.169Z,17.20
2023-05-25T22:28:16.008Z,17.10
2023-05-25T22:30:43.875Z,17.10
2023-05-25T22:33:11.963Z,17.10
2023-05-25T22:35:39.957Z,17.00
2023-05-25T22:38:07.878Z,17.00
2023-05-25T22:40:35.714Z,17.00
2023-05-25T22:43:12.431Z,17.00
2023-05-25T22:45:40.854Z,16.90
2023-05-25T22:48:09.120Z,16.90
2023-05-25T22:50:36.985Z,16.90
2023-05-25T22:53:04.794Z,16.80
2023-05-25T22:55:33.274Z,16.80
2023-05-25T22:58:01.071Z,16.80
2023-05-25T23:00:30.295Z,16.80
2023-05-25T23:02:59.416Z,16.80
2023-05-25T23:05:28.824Z,16.70
2023-05-25T23:07:58.512Z,16.70
2023-05-25T23:10:26.349Z,16.80
2023-05-25T23:12:54.617Z,16.70
2023-05-25T23:15:22.923Z,16.60
2023-05-25T23:17:52.127Z,16.60
2023-05-25T23:20:19.999Z,16.60
2023-05-25T23:22:48.694Z,16.60
2023-05-25T23:25:16.580Z,16.60
2023-05-25T23:27:44.404Z,16.60
2023-05-25T23:30:12.804Z,16.50
2023-05-25T23:32:40.638Z,16.50
2023-05-25T23:35:10.879Z,16.40
2023-05-25T23:37:38.750Z,16.50
2023-05-25T23:40:08.092Z,16.40
2023-05-25T23:42:40.459Z,16.30
2023-05-25T23:45:09.493Z,16.20
2023-05-25T23:47:37.331Z,16.20
2023-05-25T23:50:05.603Z,16.30
2023-05-25T23:52:34.826Z,16.20
2023-05-25T23:55:02.670Z,16.20
2023-05-25T23:57:30.583Z,16.30
2023-05-25T23:59:58.394Z,16.20
